createdAt,value
2022-07-29T00:00:09.379Z,1.60
2022-07-29T00:06:10.868Z,1.60
2022-07-29T00:12:12.330Z,1.80
2022-07-29T00:18:15.394Z,1.80
2022-07-29T00:24:17.259Z,1.67
2022-07-29T00:30:18.884Z,1.80
2022-07-29T00:36:21.801Z,1.80
2022-07-29T00:42:23.282Z,1.83
2022-07-29T00:48:24.847Z,1.70
2022-07-29T00:54:27.820Z,1.50
2022-07-29T01:00:29.675Z,1.70
2022-07-29T01:06:31.435Z,1.67
2022-07-29T01:12:34.448Z,2.20
2022-07-29T01:18:38.774Z,2.10
2022-07-29T01:24:58.625Z,2.00
2022-07-29T01:31:01.342Z,2.00
2022-07-29T01:37:16.275Z,1.73
2022-07-29T01:43:20.105Z,1.70
2022-07-29T01:49:25.118Z,2.10
2022-07-29T01:55:29.552Z,1.90
2022-07-29T02:01:31.916Z,2.10
2022-07-29T02:07:34.306Z,2.00
2022-07-29T02:13:37.117Z,1.90
2022-07-29T02:19:39.375Z,2.00
2022-07-29T02:25:42.381Z,1.90
2022-07-29T02:31:45.427Z,1.70
2022-07-29T02:38:07.646Z,2.00
2022-07-29T02:44:11.087Z,1.90
2022-07-29T02:50:16.417Z,1.90
2022-07-29T02:56:19.717Z,2.30
2022-07-29T03:02:21.545Z,2.00
2022-07-29T03:08:23.518Z,2.10
2022-07-29T03:14:25.261Z,2.10
2022-07-29T03:20:27.117Z,1.88
2022-07-29T03:26:28.655Z,2.37
2022-07-29T03:32:30.183Z,1.90
2022-07-29T03:38:33.582Z,2.00
2022-07-29T03:44:35.603Z,2.10
2022-07-29T03:50:37.259Z,2.40
2022-07-29T03:56:40.494Z,2.10
2022-07-29T04:02:45.939Z,1.98
2022-07-29T04:08:47.578Z,2.20
2022-07-29T04:14:49.658Z,2.23
2022-07-29T04:20:51.181Z,2.15
2022-07-29T04:26:52.681Z,2.10
2022-07-29T04:32:54.250Z,2.00
2022-07-29T04:38:55.762Z,2.20
2022-07-29T04:44:57.217Z,2.33
2022-07-29T04:51:02.151Z,2.40
2022-07-29T04:57:03.641Z,2.60
2022-07-29T05:03:05.263Z,2.30
2022-07-29T05:09:06.732Z,2.22
2022-07-29T05:15:08.502Z,2.03
2022-07-29T05:21:09.994Z,2.30
2022-07-29T05:27:11.482Z,2.30
2022-07-29T05:33:35.701Z,2.60
2022-07-29T05:39:47.456Z,2.33
2022-07-29T05:45:50.689Z,2.30
2022-07-29T05:51:52.313Z,2.40
2022-07-29T05:57:53.917Z,2.80
2022-07-29T06:03:55.581Z,2.50
2022-07-29T06:09:57.074Z,2.40
2022-07-29T06:15:58.617Z,2.63
2022-07-29T06:22:00.774Z,2.65
2022-07-29T06:28:02.303Z,2.57
2022-07-29T06:34:04.240Z,2.78
2022-07-29T06:40:25.190Z,2.60
2022-07-29T06:46:26.681Z,3.40
2022-07-29T06:52:28.180Z,3.35
2022-07-29T06:58:29.898Z,3.00
2022-07-29T07:04:31.357Z,3.20
2022-07-29T07:10:33.348Z,3.35
2022-07-29T07:16:34.834Z,2.80
2022-07-29T07:22:38.875Z,3.30
2022-07-29T07:28:40.545Z,3.20
2022-07-29T07:34:42.284Z,3.67
2022-07-29T07:40:43.751Z,3.83
2022-07-29T07:46:45.896Z,4.10
2022-07-29T07:52:48.667Z,3.80
2022-07-29T07:58:50.121Z,4.57
2022-07-29T08:04:51.560Z,4.30
2022-07-29T08:10:53.015Z,4.40
2022-07-29T08:16:54.798Z,4.47
2022-07-29T08:22:56.315Z,4.30
2022-07-29T08:28:57.793Z,4.27
2022-07-29T08:34:59.262Z,3.85
2022-07-29T08:41:03.901Z,3.95
2022-07-29T08:47:05.631Z,3.73
2022-07-29T08:53:08.266Z,3.60
2022-07-29T08:59:10.863Z,4.37
2022-07-29T09:05:14.658Z,4.00
2022-07-29T09:11:16.182Z,4.30
2022-07-29T09:17:20.863Z,4.07
2022-07-29T09:23:24.287Z,3.92
2022-07-29T09:29:26.457Z,4.90
2022-07-29T09:35:28.668Z,4.50
2022-07-29T09:41:30.376Z,4.70
2022-07-29T09:47:43.028Z,4.80
2022-07-29T09:53:44.468Z,4.50
2022-07-29T09:59:56.962Z,4.10
2022-07-29T10:06:12.219Z,4.30
2022-07-29T10:12:15.390Z,4.95
2022-07-29T10:18:20.420Z,3.90
2022-07-29T10:24:21.975Z,3.67
2022-07-29T10:30:24.515Z,3.50
2022-07-29T10:36:33.525Z,4.65
2022-07-29T10:42:40.816Z,3.80
2022-07-29T10:49:01.756Z,4.00
2022-07-29T10:55:05.678Z,3.60
2022-07-29T11:08:08.479Z,3.70
2022-07-29T11:14:10.303Z,3.70
2022-07-29T11:20:31.063Z,3.83
2022-07-29T11:26:33.957Z,3.80
2022-07-29T11:32:37.547Z,4.07
2022-07-29T11:38:41.623Z,3.50
2022-07-29T11:45:04.093Z,3.42
2022-07-29T11:51:10.404Z,3.80
2022-07-29T11:57:11.934Z,4.75
2022-07-29T12:03:33.422Z,4.10
2022-07-29T12:09:40.296Z,4.15
2022-07-29T12:15:46.136Z,4.43
2022-07-29T12:21:53.803Z,4.10
2022-07-29T12:28:02.055Z,4.97
2022-07-29T12:34:03.678Z,4.33
2022-07-29T12:40:06.071Z,4.40
2022-07-29T12:46:14.264Z,5.18
2022-07-29T12:52:32.409Z,5.17
2022-07-29T12:58:39.934Z,5.00
2022-07-29T13:04:41.390Z,5.13
2022-07-29T13:10:43.276Z,5.93
2022-07-29T13:17:03.221Z,5.55
2022-07-29T13:23:04.820Z,5.00
2022-07-29T13:29:06.274Z,4.88
2022-07-29T13:35:08.529Z,4.97
2022-07-29T13:41:10.196Z,4.50
2022-07-29T13:47:12.105Z,4.82
2022-07-29T13:53:17.753Z,5.70
2022-07-29T13:59:19.633Z,4.80
2022-07-29T14:05:21.199Z,5.00
2022-07-29T14:11:22.704Z,4.80
2022-07-29T14:17:24.271Z,5.00
2022-07-29T14:23:25.834Z,4.90
2022-07-29T14:29:36.918Z,4.63
2022-07-29T14:35:39.443Z,5.00
2022-07-29T14:41:41.015Z,4.50
2022-07-29T14:47:42.449Z,4.88
2022-07-29T14:53:44.137Z,4.67
2022-07-29T14:59:45.587Z,4.85
2022-07-29T15:05:47.665Z,4.68
2022-07-29T15:11:49.533Z,4.90
2022-07-29T15:17:51.056Z,4.70
2022-07-29T15:23:52.944Z,5.45
2022-07-29T15:29:54.426Z,4.80
2022-07-29T15:35:56.980Z,5.05
2022-07-29T15:42:00.587Z,5.10
2022-07-29T15:48:02.306Z,5.35
2022-07-29T15:54:04.479Z,6.00
2022-07-29T16:00:06.266Z,4.20
2022-07-29T16:06:10.494Z,4.40
2022-07-29T16:12:15.025Z,4.30
2022-07-29T16:18:17.039Z,4.43
2022-07-29T16:24:18.521Z,4.15
2022-07-29T16:30:20.024Z,4.33
2022-07-29T16:36:22.059Z,4.10
2022-07-29T16:42:44.440Z,4.83
2022-07-29T16:48:44.997Z,4.43
2022-07-29T16:54:46.791Z,4.30
2022-07-29T17:00:48.298Z,4.00
2022-07-29T17:06:50.433Z,4.05
2022-07-29T17:12:51.904Z,4.50
2022-07-29T17:18:53.875Z,3.83
2022-07-29T17:24:55.540Z,4.13
2022-07-29T17:30:57.414Z,4.23
2022-07-29T17:36:59.609Z,4.05
2022-07-29T17:43:01.758Z,3.90
2022-07-29T17:49:03.827Z,3.63
2022-07-29T17:55:05.786Z,4.15
2022-07-29T18:01:07.455Z,3.83
2022-07-29T18:07:08.997Z,3.80
2022-07-29T18:13:12.901Z,4.30
2022-07-29T18:19:14.350Z,4.47
2022-07-29T18:25:15.827Z,4.20
2022-07-29T18:31:17.346Z,4.43
2022-07-29T18:37:18.877Z,4.47
2022-07-29T18:43:40.373Z,4.20
2022-07-29T18:49:41.835Z,4.50
2022-07-29T18:55:43.501Z,4.47
2022-07-29T19:01:45.370Z,3.90
2022-07-29T19:07:46.882Z,4.53
2022-07-29T19:13:48.608Z,4.60
2022-07-29T19:19:53.634Z,4.55
2022-07-29T19:25:55.150Z,4.63
2022-07-29T19:31:56.668Z,5.33
2022-07-29T19:37:59.380Z,5.00
2022-07-29T19:44:00.884Z,5.27
2022-07-29T19:50:02.531Z,4.97
2022-07-29T19:56:04.145Z,4.80
2022-07-29T20:02:05.963Z,4.70
2022-07-29T20:08:08.458Z,5.63
2022-07-29T20:14:10.050Z,5.20
2022-07-29T20:20:11.729Z,5.30
2022-07-29T20:26:13.813Z,5.25
2022-07-29T20:32:15.265Z,5.10
2022-07-29T20:38:18.503Z,5.35
2022-07-29T20:44:20.365Z,5.70
2022-07-29T20:50:23.856Z,5.05
2022-07-29T20:56:25.808Z,5.20
2022-07-29T21:02:27.272Z,4.97
2022-07-29T21:08:28.873Z,5.78
2022-07-29T21:14:47.703Z,5.43
2022-07-29T21:20:49.358Z,4.72
2022-07-29T21:27:18.313Z,5.30
2022-07-29T21:33:12.289Z,5.80
2022-07-29T21:39:13.810Z,5.68
2022-07-29T21:45:15.292Z,8.30
2022-07-29T21:51:16.729Z,9.90
2022-07-29T21:57:18.173Z,8.88
2022-07-29T22:03:19.660Z,9.60
2022-07-29T22:09:21.171Z,9.20
2022-07-29T22:15:23.296Z,8.40
2022-07-29T22:21:24.782Z,8.38
2022-07-29T22:27:26.256Z,7.35
2022-07-29T22:33:28.781Z,7.53
2022-07-29T22:39:30.494Z,7.55
2022-07-29T22:45:31.977Z,7.40
2022-07-29T22:51:33.480Z,7.45
2022-07-29T22:57:34.950Z,7.07
2022-07-29T23:03:36.631Z,6.73
2022-07-29T23:09:38.155Z,7.10
2022-07-29T23:15:39.885Z,6.53
2022-07-29T23:21:41.321Z,6.40
2022-07-29T23:27:42.758Z,6.07
2022-07-29T23:33:44.278Z,6.03
2022-07-29T23:39:45.762Z,6.57
2022-07-29T23:45:48.768Z,6.90
2022-07-29T23:51:50.462Z,6.80
2022-07-29T23:57:51.911Z,6.35
